createdAt,value
2019-01-29T00:00:43.740Z,4.70
2019-01-29T00:01:43.736Z,4.80
2019-01-29T00:02:44.183Z,5.30
2019-01-29T00:03:43.712Z,4.80
2019-01-29T00:04:43.696Z,4.10
2019-01-29T00:05:43.684Z,5.10
2019-01-29T00:06:43.681Z,5.00
2019-01-29T00:07:43.666Z,4.50
2019-01-29T00:08:43.697Z,5.60
2019-01-29T00:09:43.658Z,5.40
2019-01-29T00:10:43.633Z,4.90
2019-01-29T00:11:43.620Z,5.00
2019-01-29T00:12:43.611Z,4.70
2019-01-29T00:13:43.648Z,5.40
2019-01-29T00:14:43.586Z,5.10
2019-01-29T00:15:43.581Z,5.50
2019-01-29T00:16:43.582Z,5.30
2019-01-29T00:17:43.554Z,5.20
2019-01-29T00:18:43.549Z,5.50
2019-01-29T00:19:43.584Z,5.00
2019-01-29T00:20:43.523Z,6.10
2019-01-29T00:21:43.567Z,6.20
2019-01-29T00:22:43.508Z,5.70
2019-01-29T00:23:43.503Z,6.00
2019-01-29T00:24:43.484Z,6.10
2019-01-29T00:25:43.473Z,6.70
2019-01-29T00:26:43.520Z,6.00
2019-01-29T00:27:43.448Z,5.80
2019-01-29T00:28:43.440Z,5.60
2019-01-29T00:29:43.474Z,6.00
2019-01-29T00:30:43.415Z,6.80
2019-01-29T00:31:43.407Z,6.80
2019-01-29T00:32:43.393Z,6.70
2019-01-29T00:33:43.382Z,6.20
2019-01-29T00:34:43.423Z,6.30
2019-01-29T00:35:43.365Z,6.60
2019-01-29T00:36:43.358Z,6.70
2019-01-29T00:37:43.357Z,6.70
2019-01-29T00:38:43.329Z,6.60
2019-01-29T00:39:43.322Z,6.40
2019-01-29T00:40:43.352Z,6.50
2019-01-29T00:41:43.296Z,7.10
2019-01-29T00:42:43.289Z,6.80
2019-01-29T00:43:43.273Z,6.70
2019-01-29T00:44:43.262Z,7.50
2019-01-29T00:45:43.307Z,6.70
2019-01-29T00:46:43.238Z,6.70
2019-01-29T00:47:43.229Z,6.90
2019-01-29T00:48:43.225Z,7.10
2019-01-29T00:49:43.216Z,7.70
2019-01-29T00:50:43.201Z,7.00
2019-01-29T00:51:43.231Z,6.60
2019-01-29T00:52:43.179Z,7.90
2019-01-29T00:53:43.175Z,7.00
2019-01-29T00:54:43.195Z,7.30
2019-01-29T00:55:43.142Z,6.40
2019-01-29T00:56:43.199Z,6.70
2019-01-29T00:57:43.121Z,7.40
2019-01-29T00:58:43.112Z,6.70
2019-01-29T00:59:43.103Z,6.70
2019-01-29T01:00:43.092Z,7.00
2019-01-29T01:01:43.077Z,7.30
2019-01-29T01:02:43.126Z,6.70
2019-01-29T01:03:43.054Z,6.60
2019-01-29T01:04:43.044Z,6.60
2019-01-29T01:05:43.034Z,6.60
2019-01-29T01:06:43.023Z,6.90
2019-01-29T01:07:43.052Z,7.10
2019-01-29T01:08:43.016Z,7.00
2019-01-29T01:09:43.039Z,6.40
2019-01-29T01:10:42.981Z,6.20
2019-01-29T01:11:42.970Z,6.80
2019-01-29T01:12:42.966Z,7.10
2019-01-29T01:13:42.948Z,6.90
2019-01-29T01:14:42.985Z,7.00
2019-01-29T01:15:42.991Z,6.90
2019-01-29T01:16:42.969Z,6.80
2019-01-29T01:17:42.902Z,6.90
2019-01-29T01:18:42.893Z,7.10
2019-01-29T01:19:42.880Z,6.70
2019-01-29T01:20:42.871Z,6.80
2019-01-29T01:21:42.870Z,6.90
2019-01-29T01:22:50.679Z,6.80
2019-01-29T01:23:43.878Z,6.20
2019-01-29T01:24:42.829Z,6.40
2019-01-29T01:25:42.817Z,6.60
2019-01-29T01:26:42.811Z,6.90
2019-01-29T01:27:42.800Z,6.00
2019-01-29T01:28:42.787Z,6.40
2019-01-29T01:29:42.819Z,6.90
2019-01-29T01:30:42.781Z,6.70
2019-01-29T01:31:42.755Z,6.70
2019-01-29T01:32:42.794Z,6.60
2019-01-29T01:33:42.732Z,6.70
2019-01-29T01:34:42.768Z,6.60
2019-01-29T01:35:42.712Z,6.70
2019-01-29T01:36:42.740Z,7.20
2019-01-29T01:37:42.693Z,6.80
2019-01-29T01:38:42.677Z,6.80
2019-01-29T01:39:42.665Z,6.90
2019-01-29T01:40:42.661Z,6.60
2019-01-29T01:41:42.643Z,6.90
2019-01-29T01:42:42.690Z,6.90
2019-01-29T01:43:42.623Z,6.90
2019-01-29T01:44:42.612Z,6.50
2019-01-29T01:45:42.605Z,6.40
2019-01-29T01:46:42.604Z,7.00
2019-01-29T01:47:42.588Z,7.10
2019-01-29T01:48:42.633Z,7.00
2019-01-29T01:49:42.559Z,6.50
2019-01-29T01:50:42.553Z,7.10
2019-01-29T01:51:42.541Z,6.70
2019-01-29T01:52:42.532Z,7.00
2019-01-29T01:53:42.513Z,6.80
2019-01-29T01:54:42.562Z,6.90
2019-01-29T01:55:42.490Z,6.50
2019-01-29T01:56:42.482Z,6.60
2019-01-29T01:57:42.479Z,7.10
2019-01-29T01:58:42.464Z,6.50
2019-01-29T01:59:42.450Z,7.00
2019-01-29T02:00:42.487Z,7.10
2019-01-29T02:01:42.428Z,7.20
2019-01-29T02:02:42.416Z,6.80
2019-01-29T02:03:42.415Z,6.70
2019-01-29T02:04:42.396Z,7.60
2019-01-29T02:05:42.423Z,6.70
2019-01-29T02:06:42.372Z,6.90
2019-01-29T02:07:42.360Z,7.10
2019-01-29T02:08:42.356Z,7.20
2019-01-29T02:09:42.362Z,7.30
2019-01-29T02:10:42.341Z,7.70
2019-01-29T02:11:42.365Z,6.70
2019-01-29T02:12:42.306Z,7.10
2019-01-29T02:13:42.297Z,8.10
2019-01-29T02:14:42.330Z,7.60
2019-01-29T02:15:42.285Z,7.90
2019-01-29T02:16:42.264Z,8.20
2019-01-29T02:17:42.252Z,8.00
2019-01-29T02:18:42.241Z,8.90
2019-01-29T02:19:42.231Z,8.50
2019-01-29T02:20:42.258Z,8.30
2019-01-29T02:21:42.264Z,8.30
2019-01-29T02:22:42.206Z,8.70
2019-01-29T02:23:42.190Z,8.60
2019-01-29T02:24:42.177Z,8.50
2019-01-29T02:25:42.165Z,9.00
2019-01-29T02:26:42.155Z,9.20
2019-01-29T02:27:42.202Z,9.20
2019-01-29T02:28:42.138Z,9.60
2019-01-29T02:29:42.138Z,9.90
2019-01-29T02:30:42.113Z,9.80
2019-01-29T02:31:42.125Z,10.00
2019-01-29T02:32:42.093Z,9.50
2019-01-29T02:33:42.128Z,9.60
2019-01-29T02:34:42.087Z,10.10
2019-01-29T02:35:42.057Z,11.40
2019-01-29T02:36:42.047Z,10.30
2019-01-29T02:37:42.037Z,11.60
2019-01-29T02:38:42.035Z,11.10
2019-01-29T02:39:42.058Z,11.90
2019-01-29T02:40:42.007Z,12.90
2019-01-29T02:41:42.052Z,15.20
2019-01-29T02:42:41.996Z,14.80
2019-01-29T02:43:41.972Z,15.70
2019-01-29T02:44:41.973Z,15.80
2019-01-29T02:45:41.956Z,16.50
2019-01-29T02:46:41.946Z,16.30
2019-01-29T02:47:41.970Z,17.00
2019-01-29T02:48:41.925Z,15.90
2019-01-29T02:49:41.905Z,17.90
2019-01-29T02:50:41.896Z,17.30
2019-01-29T02:51:41.883Z,18.00
2019-01-29T02:52:41.873Z,18.60
2019-01-29T02:53:41.913Z,18.00
2019-01-29T02:54:41.874Z,18.00
2019-01-29T02:55:41.849Z,18.10
2019-01-29T02:56:41.878Z,18.00
2019-01-29T02:57:41.827Z,17.90
2019-01-29T02:58:41.866Z,18.60
2019-01-29T02:59:41.801Z,17.40
2019-01-29T03:00:41.785Z,18.60
2019-01-29T03:01:41.778Z,20.40
2019-01-29T03:02:41.769Z,20.70
2019-01-29T03:03:41.753Z,19.90
2019-01-29T03:04:41.789Z,21.40
2019-01-29T03:05:41.750Z,20.00
2019-01-29T03:06:41.724Z,20.30
2019-01-29T03:07:41.714Z,20.10
2019-01-29T03:08:41.697Z,17.40
2019-01-29T03:09:41.738Z,16.60
2019-01-29T03:10:41.677Z,17.80
2019-01-29T03:11:41.670Z,17.20
2019-01-29T03:12:41.657Z,18.00
2019-01-29T03:13:41.645Z,17.40
2019-01-29T03:14:41.634Z,18.10
2019-01-29T03:15:41.681Z,19.30
2019-01-29T03:16:41.613Z,18.50
2019-01-29T03:17:41.610Z,19.70
2019-01-29T03:18:41.605Z,19.00
2019-01-29T03:19:41.636Z,19.80
2019-01-29T03:20:41.570Z,20.40
2019-01-29T03:21:41.585Z,20.80
2019-01-29T03:22:41.548Z,20.60
2019-01-29T03:23:41.537Z,20.20
2019-01-29T03:24:41.531Z,15.40
2019-01-29T03:25:41.560Z,19.50
2019-01-29T03:26:41.508Z,18.50
2019-01-29T03:27:41.506Z,16.20
2019-01-29T03:28:41.497Z,17.00
2019-01-29T03:29:41.475Z,16.50
2019-01-29T03:30:41.460Z,11.00
2019-01-29T03:31:41.494Z,8.70
2019-01-29T03:32:41.468Z,10.70
2019-01-29T03:33:41.431Z,10.00
2019-01-29T03:34:41.417Z,9.30
2019-01-29T03:35:41.409Z,10.10
2019-01-29T03:36:41.395Z,10.60
2019-01-29T03:37:41.429Z,10.40
2019-01-29T03:38:41.424Z,11.70
2019-01-29T03:39:41.367Z,11.80
2019-01-29T03:40:41.354Z,12.40
2019-01-29T03:41:41.347Z,12.50
2019-01-29T03:42:41.330Z,12.60
2019-01-29T03:43:41.320Z,12.40
2019-01-29T03:44:41.370Z,11.60
2019-01-29T03:45:41.299Z,13.20
2019-01-29T03:46:41.290Z,12.90
2019-01-29T03:47:41.309Z,12.80
2019-01-29T03:48:41.263Z,12.70
2019-01-29T03:49:41.260Z,14.20
2019-01-29T03:50:41.281Z,14.70
2019-01-29T03:51:41.230Z,14.00
2019-01-29T03:52:41.224Z,14.70
2019-01-29T03:53:41.216Z,14.80
2019-01-29T03:54:41.200Z,14.40
2019-01-29T03:55:41.189Z,15.00
2019-01-29T03:56:41.220Z,14.50
2019-01-29T03:57:41.167Z,14.80
2019-01-29T03:58:41.163Z,14.80
2019-01-29T03:59:41.169Z,15.20
2019-01-29T04:00:41.135Z,14.20
2019-01-29T04:01:41.128Z,12.40
2019-01-29T04:02:41.164Z,12.40
2019-01-29T04:03:41.147Z,12.70
2019-01-29T04:04:41.168Z,12.30
2019-01-29T04:05:41.077Z,13.10
2019-01-29T04:06:41.071Z,12.10
2019-01-29T04:07:41.061Z,12.60
2019-01-29T04:08:41.061Z,11.80
2019-01-29T04:09:41.040Z,12.30
2019-01-29T04:10:41.078Z,11.70
2019-01-29T04:11:41.018Z,12.30
2019-01-29T04:12:41.010Z,12.60
2019-01-29T04:13:40.994Z,12.10
2019-01-29T04:14:40.991Z,11.80
2019-01-29T04:15:40.970Z,11.30
2019-01-29T04:16:41.019Z,12.40
2019-01-29T04:17:40.962Z,12.10
2019-01-29T04:18:40.954Z,12.40
2019-01-29T04:19:40.926Z,12.60
2019-01-29T04:20:40.919Z,12.50
2019-01-29T04:21:40.916Z,13.10
2019-01-29T04:22:40.950Z,12.10
2019-01-29T04:23:47.277Z,12.80
2019-01-29T04:24:41.874Z,12.20
2019-01-29T04:25:40.860Z,12.20
2019-01-29T04:26:40.854Z,12.00
2019-01-29T04:27:40.851Z,12.20
2019-01-29T04:28:40.889Z,11.60
2019-01-29T04:29:40.821Z,13.10
2019-01-29T04:30:40.809Z,13.10
2019-01-29T04:31:40.800Z,13.20
2019-01-29T04:32:40.790Z,13.20
2019-01-29T04:33:40.784Z,13.10
2019-01-29T04:34:40.805Z,12.10
2019-01-29T04:35:40.756Z,13.30
2019-01-29T04:36:40.783Z,13.10
2019-01-29T04:37:40.729Z,13.70
2019-01-29T04:38:40.724Z,13.00
2019-01-29T04:39:40.714Z,13.00
2019-01-29T04:40:40.745Z,13.60
2019-01-29T04:41:40.706Z,14.30
2019-01-29T04:42:40.680Z,14.10
2019-01-29T04:43:40.666Z,14.80
2019-01-29T04:44:40.670Z,15.80
2019-01-29T04:45:40.699Z,16.20
2019-01-29T04:46:40.637Z,15.90
2019-01-29T04:47:40.623Z,15.50
2019-01-29T04:48:40.610Z,15.80
2019-01-29T04:49:40.606Z,16.20
2019-01-29T04:50:40.595Z,17.40
2019-01-29T04:51:40.622Z,17.10
2019-01-29T04:52:40.578Z,17.90
2019-01-29T04:53:40.557Z,18.00
2019-01-29T04:54:40.604Z,18.40
2019-01-29T04:55:40.538Z,19.20
2019-01-29T04:56:40.532Z,18.10
2019-01-29T04:57:40.512Z,19.40
2019-01-29T04:58:40.508Z,17.90
2019-01-29T04:59:40.495Z,18.10
2019-01-29T05:00:40.538Z,19.10
2019-01-29T05:01:40.532Z,18.60
2019-01-29T05:02:40.460Z,18.90
2019-01-29T05:03:40.455Z,18.10
2019-01-29T05:04:40.438Z,18.80
2019-01-29T05:05:40.440Z,18.20
2019-01-29T05:06:40.414Z,18.50
2019-01-29T05:07:40.471Z,16.60
2019-01-29T05:08:40.395Z,18.20
2019-01-29T05:09:40.392Z,17.10
2019-01-29T05:10:40.373Z,18.70
2019-01-29T05:11:40.367Z,17.90
2019-01-29T05:12:40.350Z,18.10
2019-01-29T05:13:40.379Z,19.00
2019-01-29T05:14:40.332Z,17.90
2019-01-29T05:15:40.319Z,17.30
2019-01-29T05:16:40.305Z,17.80
2019-01-29T05:17:40.296Z,16.80
2019-01-29T05:18:40.289Z,17.40
2019-01-29T05:19:40.316Z,15.20
2019-01-29T05:20:40.265Z,15.60
2019-01-29T05:21:40.258Z,18.10
2019-01-29T05:22:40.242Z,23.80
2019-01-29T05:23:40.273Z,19.80
2019-01-29T05:24:40.222Z,16.20
2019-01-29T05:25:40.209Z,15.80
2019-01-29T05:26:40.260Z,13.60
2019-01-29T05:27:40.188Z,14.30
2019-01-29T05:28:40.178Z,14.90
2019-01-29T05:29:40.173Z,16.30
2019-01-29T05:30:40.157Z,15.40
2019-01-29T05:31:40.143Z,16.70
2019-01-29T05:32:40.231Z,15.50
2019-01-29T05:33:41.627Z,15.10
2019-01-29T05:34:40.111Z,16.00
2019-01-29T05:35:40.100Z,15.80
2019-01-29T05:36:40.097Z,16.50
2019-01-29T05:37:40.077Z,16.70
2019-01-29T05:38:40.116Z,16.90
2019-01-29T05:39:40.097Z,16.10
2019-01-29T05:40:40.054Z,14.10
2019-01-29T05:41:40.081Z,14.30
2019-01-29T05:42:40.074Z,13.80
2019-01-29T05:43:40.024Z,15.00
2019-01-29T05:44:40.024Z,14.70
2019-01-29T05:45:40.029Z,15.10
2019-01-29T05:46:40.027Z,14.80
2019-01-29T05:47:39.984Z,13.40
2019-01-29T05:48:40.040Z,13.70
2019-01-29T05:49:39.954Z,15.30
2019-01-29T05:50:39.953Z,14.50
2019-01-29T05:51:40.659Z,15.50
2019-01-29T05:52:39.937Z,14.60
2019-01-29T05:53:39.914Z,15.80
2019-01-29T05:54:39.955Z,15.50
2019-01-29T05:55:39.884Z,16.90
2019-01-29T05:56:39.873Z,17.30
2019-01-29T05:57:39.860Z,17.30
2019-01-29T05:58:39.881Z,18.60
2019-01-29T05:59:39.873Z,18.00
2019-01-29T06:00:39.871Z,18.10
2019-01-29T06:01:39.823Z,17.00
2019-01-29T06:02:39.842Z,17.60
2019-01-29T06:03:39.823Z,17.00
2019-01-29T06:04:39.791Z,18.10
2019-01-29T06:05:39.788Z,18.10
2019-01-29T06:06:39.810Z,18.20
2019-01-29T06:07:39.757Z,17.30
2019-01-29T06:08:39.900Z,17.60
2019-01-29T06:09:39.732Z,17.80
2019-01-29T06:10:39.730Z,15.30
2019-01-29T06:11:39.720Z,15.40
2019-01-29T06:12:39.742Z,17.50
2019-01-29T06:13:39.693Z,19.30
2019-01-29T06:14:39.732Z,18.10
2019-01-29T06:15:39.675Z,19.30
2019-01-29T06:16:39.664Z,19.80
2019-01-29T06:17:39.657Z,19.70
2019-01-29T06:18:39.642Z,18.70
2019-01-29T06:19:39.631Z,19.60
2019-01-29T06:20:39.670Z,18.80
2019-01-29T06:21:39.623Z,20.10
2019-01-29T06:22:39.593Z,20.20
2019-01-29T06:23:39.581Z,19.60
2019-01-29T06:24:39.708Z,19.60
2019-01-29T06:25:39.602Z,19.90
2019-01-29T06:26:39.553Z,19.80
2019-01-29T06:27:39.541Z,20.40
2019-01-29T06:28:39.534Z,20.00
2019-01-29T06:29:39.518Z,20.00
2019-01-29T06:30:39.550Z,21.10
2019-01-29T06:31:39.568Z,20.70
2019-01-29T06:32:39.497Z,21.30
2019-01-29T06:33:39.523Z,21.00
2019-01-29T06:34:39.474Z,21.00
2019-01-29T06:35:39.454Z,21.00
2019-01-29T06:36:39.450Z,21.10
2019-01-29T06:37:39.436Z,20.60
2019-01-29T06:38:39.436Z,21.00
2019-01-29T06:39:39.453Z,21.90
2019-01-29T06:40:39.414Z,21.60
2019-01-29T06:41:39.389Z,20.30
2019-01-29T06:42:39.401Z,21.00
2019-01-29T06:43:39.421Z,20.00
2019-01-29T06:44:39.361Z,19.10
2019-01-29T06:45:39.403Z,19.20
2019-01-29T06:46:39.578Z,19.10
2019-01-29T06:47:39.355Z,19.00
2019-01-29T06:48:39.486Z,18.30
2019-01-29T06:49:39.339Z,19.00
2019-01-29T06:50:39.290Z,18.10
2019-01-29T06:51:39.338Z,17.70
2019-01-29T06:52:39.310Z,17.80
2019-01-29T06:53:39.269Z,18.60
2019-01-29T06:54:39.272Z,18.30
2019-01-29T06:55:39.238Z,19.50
2019-01-29T06:56:39.305Z,19.80
2019-01-29T06:57:39.317Z,20.80
2019-01-29T06:58:39.209Z,21.40
2019-01-29T06:59:39.219Z,20.90
2019-01-29T07:00:39.194Z,20.70
2019-01-29T07:01:39.283Z,21.20
2019-01-29T07:02:39.347Z,20.10
2019-01-29T07:03:39.348Z,22.10
2019-01-29T07:04:39.481Z,22.30
2019-01-29T07:05:39.350Z,21.60
2019-01-29T07:06:39.170Z,21.40
2019-01-29T07:07:39.151Z,20.80
2019-01-29T07:08:39.403Z,20.30
2019-01-29T07:09:39.086Z,20.30
2019-01-29T07:10:39.115Z,19.30
2019-01-29T07:11:39.168Z,19.80
2019-01-29T07:12:39.115Z,20.00
2019-01-29T07:13:39.062Z,18.20
2019-01-29T07:14:39.044Z,17.10
2019-01-29T07:15:39.060Z,17.30
2019-01-29T07:16:39.068Z,18.30
2019-01-29T07:17:39.072Z,18.30
2019-01-29T07:18:39.048Z,17.00
2019-01-29T07:19:39.061Z,16.80
2019-01-29T07:20:38.967Z,15.80
2019-01-29T07:21:39.003Z,15.90
2019-01-29T07:22:38.963Z,16.10
2019-01-29T07:23:38.958Z,16.80
2019-01-29T07:24:42.914Z,16.50
2019-01-29T07:25:39.026Z,16.90
2019-01-29T07:26:39.118Z,17.60
2019-01-29T07:27:38.952Z,17.40
2019-01-29T07:28:38.881Z,17.60
2019-01-29T07:29:38.869Z,18.10
2019-01-29T07:30:38.880Z,17.70
2019-01-29T07:31:39.010Z,17.70
2019-01-29T07:32:38.881Z,17.50
2019-01-29T07:33:38.823Z,17.40
2019-01-29T07:34:38.992Z,18.10
2019-01-29T07:35:38.850Z,18.70
2019-01-29T07:36:38.818Z,18.60
2019-01-29T07:37:38.784Z,17.80
2019-01-29T07:38:38.771Z,17.60
2019-01-29T07:39:38.787Z,16.70
2019-01-29T07:40:38.811Z,16.70
2019-01-29T07:41:38.770Z,16.30
2019-01-29T07:42:38.727Z,16.70
2019-01-29T07:43:38.733Z,17.10
2019-01-29T07:44:38.791Z,16.60
2019-01-29T07:45:38.787Z,18.20
2019-01-29T07:46:38.864Z,17.70
2019-01-29T07:47:38.671Z,17.60
2019-01-29T07:48:38.686Z,18.30
2019-01-29T07:49:38.748Z,17.50
2019-01-29T07:50:38.666Z,17.90
2019-01-29T07:51:38.629Z,17.60
2019-01-29T07:52:38.710Z,18.00
2019-01-29T07:53:38.792Z,18.70
2019-01-29T07:54:38.631Z,17.90
2019-01-29T07:55:38.762Z,17.50
2019-01-29T07:56:38.584Z,17.50
2019-01-29T07:57:38.639Z,16.20
2019-01-29T07:58:38.926Z,16.00
2019-01-29T07:59:38.542Z,15.50
2019-01-29T08:00:38.542Z,14.80
2019-01-29T08:01:38.725Z,15.30
2019-01-29T08:02:38.576Z,14.70
2019-01-29T08:03:38.712Z,14.60
2019-01-29T08:04:38.495Z,14.50
2019-01-29T08:05:38.529Z,14.90
2019-01-29T08:06:38.538Z,14.80
2019-01-29T08:07:38.479Z,14.30
2019-01-29T08:08:38.471Z,13.20
2019-01-29T08:09:41.546Z,12.80
2019-01-29T08:10:38.524Z,12.50
2019-01-29T08:11:38.515Z,13.00
2019-01-29T08:12:38.574Z,11.80
2019-01-29T08:13:38.480Z,11.90
2019-01-29T08:14:38.393Z,11.50
2019-01-29T08:15:38.421Z,11.40
2019-01-29T08:16:39.674Z,11.10
2019-01-29T08:17:44.076Z,11.70
2019-01-29T08:18:38.579Z,12.20
2019-01-29T08:19:38.330Z,12.20
2019-01-29T08:20:38.342Z,11.90
2019-01-29T08:21:38.645Z,12.90
2019-01-29T08:22:38.445Z,11.60
2019-01-29T08:23:43.030Z,11.70
2019-01-29T08:24:38.716Z,11.40
2019-01-29T08:25:52.981Z,11.40
2019-01-29T08:26:38.258Z,12.30
2019-01-29T08:27:38.314Z,11.80
2019-01-29T08:28:38.443Z,11.40
2019-01-29T08:29:38.287Z,11.80
2019-01-29T08:30:38.215Z,10.60
2019-01-29T08:31:38.226Z,11.00
2019-01-29T08:32:38.225Z,10.90
2019-01-29T08:33:38.187Z,9.80
2019-01-29T08:34:38.216Z,9.80
2019-01-29T08:35:38.159Z,9.80
2019-01-29T08:36:38.147Z,10.00
2019-01-29T08:37:38.327Z,9.60
2019-01-29T08:38:38.167Z,10.40
2019-01-29T08:39:38.165Z,10.30
2019-01-29T08:40:38.144Z,9.30
2019-01-29T08:41:38.138Z,9.80
2019-01-29T08:42:38.090Z,9.70
2019-01-29T08:43:38.675Z,9.70
2019-01-29T08:44:38.109Z,9.00
2019-01-29T08:45:39.533Z,9.10
2019-01-29T08:46:49.683Z,9.40
2019-01-29T08:47:38.355Z,9.90
2019-01-29T08:48:38.253Z,10.00
2019-01-29T08:49:38.098Z,9.20
2019-01-29T08:50:37.995Z,8.30
2019-01-29T08:51:48.963Z,8.70
2019-01-29T08:52:44.763Z,10.20
2019-01-29T08:53:37.977Z,9.30
2019-01-29T08:54:38.002Z,9.20
2019-01-29T08:55:37.964Z,9.10
2019-01-29T08:56:37.942Z,8.20
2019-01-29T08:57:37.917Z,8.50
2019-01-29T08:58:37.941Z,9.60
2019-01-29T08:59:37.979Z,9.40
2019-01-29T09:00:37.906Z,9.20
2019-01-29T09:01:37.876Z,9.10
2019-01-29T09:02:38.304Z,8.60
2019-01-29T09:03:38.897Z,9.30
2019-01-29T09:04:38.520Z,8.90
2019-01-29T09:05:38.983Z,8.90
2019-01-29T09:06:37.918Z,8.10
2019-01-29T09:07:37.884Z,8.00
2019-01-29T09:08:37.814Z,8.40
2019-01-29T09:09:43.714Z,7.80
2019-01-29T09:10:38.041Z,8.00
2019-01-29T09:11:38.499Z,8.00
2019-01-29T09:12:39.104Z,8.10
2019-01-29T09:13:37.780Z,8.30
2019-01-29T09:14:37.741Z,7.90
2019-01-29T09:15:37.750Z,8.40
2019-01-29T09:16:37.770Z,7.90
2019-01-29T09:17:37.717Z,8.50
2019-01-29T09:18:37.698Z,9.00
2019-01-29T09:19:37.851Z,8.80
2019-01-29T09:20:38.572Z,8.40
2019-01-29T09:21:37.675Z,9.10
2019-01-29T09:22:37.660Z,9.10
2019-01-29T09:23:37.643Z,9.10
2019-01-29T09:24:37.628Z,8.60
2019-01-29T09:25:37.704Z,8.70
2019-01-29T09:26:37.654Z,8.90
2019-01-29T09:27:38.341Z,8.40
2019-01-29T09:28:37.652Z,9.30
2019-01-29T09:29:37.630Z,10.10
2019-01-29T09:30:37.582Z,9.70
2019-01-29T09:31:38.201Z,8.20
2019-01-29T09:32:37.785Z,7.20
2019-01-29T09:33:37.542Z,7.90
2019-01-29T09:34:37.521Z,7.00
2019-01-29T09:35:37.793Z,7.20
2019-01-29T09:36:37.628Z,7.00
2019-01-29T09:37:37.757Z,6.60
2019-01-29T09:38:37.561Z,5.90
2019-01-29T09:39:37.490Z,5.60
2019-01-29T09:40:37.524Z,5.90
2019-01-29T09:41:37.444Z,6.20
2019-01-29T09:42:37.448Z,6.40
2019-01-29T09:43:37.462Z,7.10
2019-01-29T09:44:37.426Z,7.60
2019-01-29T09:45:37.526Z,7.90
2019-01-29T09:46:37.861Z,6.90
2019-01-29T09:47:37.793Z,7.20
2019-01-29T09:48:37.616Z,7.70
2019-01-29T09:49:37.370Z,7.40
2019-01-29T09:50:37.362Z,7.80
2019-01-29T09:51:37.417Z,7.20
2019-01-29T09:52:37.481Z,7.20
2019-01-29T09:53:37.325Z,7.60
2019-01-29T09:54:37.351Z,7.80
2019-01-29T09:55:37.382Z,6.90
2019-01-29T09:56:37.308Z,6.60
2019-01-29T09:57:37.274Z,6.70
2019-01-29T09:58:37.303Z,6.40
2019-01-29T09:59:37.472Z,7.70
2019-01-29T10:00:37.269Z,7.30
2019-01-29T10:01:37.244Z,7.20
2019-01-29T10:02:37.215Z,7.90
2019-01-29T10:03:37.217Z,7.90
2019-01-29T10:04:37.196Z,7.20
2019-01-29T10:05:37.300Z,8.00
2019-01-29T10:06:37.177Z,8.10
2019-01-29T10:07:37.163Z,7.90
2019-01-29T10:08:37.152Z,7.70
2019-01-29T10:09:37.159Z,7.20
2019-01-29T10:10:37.175Z,7.20
2019-01-29T10:11:37.133Z,7.40
2019-01-29T10:12:37.653Z,7.10
2019-01-29T10:13:48.219Z,7.40
2019-01-29T10:15:01.796Z,7.50
2019-01-29T10:15:38.337Z,7.80
2019-01-29T10:16:37.063Z,6.90
2019-01-29T10:17:37.071Z,7.50
2019-01-29T10:18:37.976Z,8.30
2019-01-29T10:19:37.794Z,8.40
2019-01-29T10:20:37.092Z,8.20
2019-01-29T10:21:37.171Z,7.20
2019-01-29T10:22:37.046Z,7.40
2019-01-29T10:23:37.014Z,7.60
2019-01-29T10:24:37.024Z,7.60
2019-01-29T10:25:38.095Z,7.60
2019-01-29T10:26:37.151Z,7.20
2019-01-29T10:27:38.015Z,7.90
2019-01-29T10:28:37.378Z,8.60
2019-01-29T10:29:37.239Z,8.00
2019-01-29T10:30:44.059Z,8.40
2019-01-29T10:31:37.968Z,8.10
2019-01-29T10:32:36.937Z,8.20
2019-01-29T10:33:37.019Z,8.70
2019-01-29T10:34:36.917Z,9.10
2019-01-29T10:35:36.985Z,8.70
2019-01-29T10:36:36.880Z,8.30
2019-01-29T10:37:36.873Z,8.00
2019-01-29T10:38:37.076Z,8.10
2019-01-29T10:39:36.818Z,8.80
2019-01-29T10:40:36.854Z,8.30
2019-01-29T10:41:37.650Z,8.20
2019-01-29T10:42:37.358Z,7.20
2019-01-29T10:43:36.814Z,7.80
2019-01-29T10:44:37.011Z,8.30
2019-01-29T10:45:36.788Z,8.10
2019-01-29T10:46:36.761Z,8.00
2019-01-29T10:47:36.837Z,7.80
2019-01-29T10:48:36.819Z,7.90
2019-01-29T10:49:36.722Z,8.50
2019-01-29T10:50:37.083Z,8.00
2019-01-29T10:51:36.710Z,6.90
2019-01-29T10:52:36.697Z,6.70
2019-01-29T10:53:36.733Z,6.80
2019-01-29T10:54:36.761Z,5.70
2019-01-29T10:55:36.845Z,5.80
2019-01-29T10:56:36.688Z,4.60
2019-01-29T10:57:36.638Z,5.00
2019-01-29T10:58:36.625Z,4.50
2019-01-29T10:59:36.650Z,4.10
2019-01-29T11:00:36.651Z,3.80
2019-01-29T11:01:36.617Z,3.70
2019-01-29T11:02:36.569Z,3.60
2019-01-29T11:03:36.573Z,3.30
2019-01-29T11:04:36.557Z,3.40
2019-01-29T11:05:36.584Z,3.30
2019-01-29T11:06:36.568Z,3.20
2019-01-29T11:07:36.537Z,3.20
2019-01-29T11:08:36.598Z,3.20
2019-01-29T11:09:36.726Z,3.00
2019-01-29T11:10:36.581Z,3.10
2019-01-29T11:11:36.574Z,3.20
2019-01-29T11:12:36.510Z,3.20
2019-01-29T11:13:36.504Z,2.90
2019-01-29T11:14:36.606Z,3.10
2019-01-29T11:15:36.567Z,3.00
2019-01-29T11:16:36.604Z,2.80
2019-01-29T11:17:36.437Z,2.90
2019-01-29T11:18:36.430Z,2.80
2019-01-29T11:19:36.401Z,3.00
2019-01-29T11:20:36.384Z,3.20
2019-01-29T11:21:36.361Z,3.00
2019-01-29T11:22:36.398Z,2.60
2019-01-29T11:23:36.548Z,2.80
2019-01-29T11:24:36.338Z,3.40
2019-01-29T11:25:36.470Z,3.40
2019-01-29T11:26:36.363Z,2.80
2019-01-29T11:27:36.302Z,2.70
2019-01-29T11:28:36.313Z,2.70
2019-01-29T11:29:36.321Z,3.00
2019-01-29T11:30:36.279Z,3.10
2019-01-29T11:31:36.504Z,2.80
2019-01-29T11:32:36.377Z,3.30
2019-01-29T11:33:36.316Z,2.90
2019-01-29T11:34:36.280Z,3.00
2019-01-29T11:35:36.245Z,2.80
2019-01-29T11:36:36.237Z,2.80
2019-01-29T11:37:36.245Z,2.80
2019-01-29T11:38:36.213Z,3.00
2019-01-29T11:39:36.794Z,3.40
2019-01-29T11:40:36.222Z,3.10
2019-01-29T11:41:36.168Z,2.80
2019-01-29T11:42:36.139Z,3.00
2019-01-29T11:43:36.142Z,2.90
2019-01-29T11:44:36.113Z,2.50
2019-01-29T11:45:36.115Z,3.00
2019-01-29T11:46:36.241Z,3.60
2019-01-29T11:47:36.109Z,2.80
2019-01-29T11:48:36.145Z,3.00
2019-01-29T11:49:36.110Z,3.30
2019-01-29T11:50:36.059Z,3.00
2019-01-29T11:51:36.066Z,3.10
2019-01-29T11:52:36.031Z,2.90
2019-01-29T11:53:36.055Z,3.00
2019-01-29T11:54:36.039Z,3.00
2019-01-29T11:55:36.065Z,3.20
2019-01-29T11:56:36.070Z,3.20
2019-01-29T11:57:36.000Z,3.20
2019-01-29T11:58:36.221Z,3.30
2019-01-29T11:59:35.953Z,3.30
2019-01-29T12:00:35.999Z,3.30
2019-01-29T12:01:35.943Z,3.60
2019-01-29T12:02:35.968Z,3.40
2019-01-29T12:03:35.965Z,3.00
2019-01-29T12:04:35.907Z,3.40
2019-01-29T12:05:35.889Z,3.20
2019-01-29T12:06:35.878Z,3.10
2019-01-29T12:07:35.871Z,3.00
2019-01-29T12:08:35.972Z,3.20
2019-01-29T12:09:35.849Z,2.80
2019-01-29T12:10:35.844Z,2.40
2019-01-29T12:11:35.816Z,2.70
2019-01-29T12:12:35.817Z,2.80
2019-01-29T12:13:35.896Z,2.90
2019-01-29T12:14:35.858Z,2.60
2019-01-29T12:15:35.779Z,2.70
2019-01-29T12:16:35.783Z,2.60
2019-01-29T12:17:35.758Z,3.30
2019-01-29T12:18:51.215Z,2.70
2019-01-29T12:19:35.739Z,2.80
2019-01-29T12:20:35.721Z,3.20
2019-01-29T12:21:35.713Z,2.90
2019-01-29T12:22:35.717Z,2.70
2019-01-29T12:23:36.046Z,3.00
2019-01-29T12:24:35.681Z,3.00
2019-01-29T12:25:35.692Z,3.00
2019-01-29T12:26:35.697Z,2.50
2019-01-29T12:27:35.658Z,2.70
2019-01-29T12:28:35.945Z,3.20
2019-01-29T12:29:35.706Z,3.10
2019-01-29T12:30:35.625Z,2.90
2019-01-29T12:31:35.614Z,2.80
2019-01-29T12:32:35.590Z,3.20
2019-01-29T12:33:35.653Z,3.00
2019-01-29T12:34:35.914Z,3.00
2019-01-29T12:35:35.576Z,2.50
2019-01-29T12:36:35.556Z,2.70
2019-01-29T12:37:35.573Z,2.70
2019-01-29T12:38:35.543Z,3.00
2019-01-29T12:39:35.557Z,2.60
2019-01-29T12:40:37.045Z,2.80
2019-01-29T12:41:35.498Z,3.00
2019-01-29T12:42:35.576Z,2.90
2019-01-29T12:43:35.475Z,2.50
2019-01-29T12:44:35.488Z,2.90
2019-01-29T12:45:35.498Z,3.00
2019-01-29T12:46:37.591Z,2.50
2019-01-29T12:47:35.530Z,2.90
2019-01-29T12:48:35.467Z,2.10
2019-01-29T12:49:35.620Z,2.70
2019-01-29T12:50:35.391Z,2.70
2019-01-29T12:51:35.410Z,2.50
2019-01-29T12:52:35.387Z,2.50
2019-01-29T12:53:35.362Z,2.60
2019-01-29T12:54:35.353Z,2.60
2019-01-29T12:55:35.457Z,2.50
2019-01-29T12:56:35.336Z,2.50
2019-01-29T12:57:35.485Z,2.80
2019-01-29T12:58:35.309Z,2.90
2019-01-29T12:59:35.375Z,2.70
2019-01-29T13:00:35.354Z,2.90
2019-01-29T13:01:35.279Z,2.50
2019-01-29T13:02:35.624Z,2.70
2019-01-29T13:03:35.289Z,2.50
2019-01-29T13:04:35.300Z,2.80
2019-01-29T13:05:35.353Z,2.70
2019-01-29T13:06:35.218Z,2.50